createdAt,value
2019-04-25T00:03:53.895Z,39.87
2019-04-25T00:09:11.927Z,40.00
2019-04-25T00:14:26.375Z,39.96
2019-04-25T00:19:34.597Z,40.00
2019-04-25T00:25:15.955Z,40.13
2019-04-25T00:30:24.163Z,40.20
2019-04-25T00:35:34.904Z,40.16
2019-04-25T00:40:43.919Z,40.15
2019-04-25T00:45:53.145Z,40.22
2019-04-25T00:51:02.353Z,40.21
2019-04-25T00:56:07.851Z,40.23
2019-04-25T01:01:37.920Z,40.26
2019-04-25T01:06:58.762Z,40.28
2019-04-25T01:12:11.472Z,40.27
2019-04-25T01:17:24.860Z,40.29
2019-04-25T01:22:31.390Z,40.36
2019-04-25T01:27:40.599Z,40.36
2019-04-25T01:32:46.795Z,40.32
2019-04-25T01:38:16.043Z,40.27
2019-04-25T01:43:40.847Z,40.22
2019-04-25T01:48:48.826Z,40.18
2019-04-25T01:53:57.206Z,40.22
2019-04-25T01:59:10.205Z,40.25
2019-04-25T02:04:18.573Z,40.33
2019-04-25T02:09:29.738Z,40.37
2019-04-25T02:14:46.821Z,40.40
2019-04-25T02:20:04.091Z,40.54
2019-04-25T02:30:45.407Z,40.58
2019-04-25T02:36:02.609Z,40.51
2019-04-25T02:41:14.496Z,40.48
2019-04-25T02:46:55.875Z,40.40
2019-04-25T02:52:15.727Z,40.48
2019-04-25T02:57:25.130Z,40.54
2019-04-25T03:02:38.958Z,40.61
2019-04-25T03:07:54.468Z,40.68
2019-04-25T03:13:24.420Z,40.75
2019-04-25T03:18:34.932Z,40.93
2019-04-25T03:23:49.146Z,41.05
2019-04-25T03:29:03.866Z,41.05
2019-04-25T03:34:17.160Z,40.99
2019-04-25T03:39:20.833Z,40.94
2019-04-25T03:44:33.889Z,40.87
2019-04-25T03:49:40.959Z,40.82
2019-04-25T03:54:47.545Z,40.92
2019-04-25T04:00:00.893Z,41.03
2019-04-25T04:05:13.915Z,41.13
2019-04-25T04:10:27.407Z,41.23
2019-04-25T04:15:40.239Z,41.33
2019-04-25T04:21:33.384Z,41.46
2019-04-25T04:26:34.210Z,41.52
2019-04-25T04:31:44.108Z,41.45
2019-04-25T04:36:54.104Z,41.48
2019-04-25T04:42:08.392Z,41.41
2019-04-25T04:47:16.598Z,41.29
2019-04-25T04:52:27.591Z,41.29
2019-04-25T04:57:44.718Z,41.35
2019-04-25T05:03:05.530Z,41.43
2019-04-25T05:08:18.771Z,41.51
2019-04-25T05:13:39.717Z,41.59
2019-04-25T05:19:01.682Z,41.71
2019-04-25T05:24:04.774Z,41.81
2019-04-25T05:29:19.745Z,41.76
2019-04-25T05:34:46.152Z,41.73
2019-04-25T05:40:05.602Z,41.69
2019-04-25T05:45:17.522Z,41.62
2019-04-25T05:50:25.387Z,41.61
2019-04-25T05:55:36.101Z,41.71
2019-04-25T06:00:45.708Z,41.76
2019-04-25T06:06:07.451Z,41.85
2019-04-25T06:11:53.364Z,41.94
2019-04-25T06:17:15.123Z,41.98
2019-04-25T06:22:45.706Z,42.10
2019-04-25T06:27:59.808Z,42.14
2019-04-25T06:33:11.360Z,42.12
2019-04-25T06:38:27.149Z,42.09
2019-04-25T06:43:59.844Z,42.11
2019-04-25T06:49:20.881Z,42.03
2019-04-25T06:54:33.508Z,42.13
2019-04-25T06:59:50.795Z,42.35
2019-04-25T07:04:57.576Z,42.32
2019-04-25T07:10:14.293Z,42.39
2019-04-25T07:15:24.715Z,42.50
2019-04-25T07:20:34.625Z,42.68
2019-04-25T07:25:47.800Z,42.68
2019-04-25T07:31:17.338Z,42.61
2019-04-25T07:36:33.032Z,42.60
2019-04-25T07:41:40.015Z,42.56
2019-04-25T07:46:47.278Z,42.51
2019-04-25T07:51:56.610Z,42.48
2019-04-25T07:57:05.530Z,42.46
2019-04-25T08:02:13.461Z,42.50
2019-04-25T08:07:25.890Z,42.50
2019-04-25T08:12:39.513Z,42.48
2019-04-25T08:18:08.929Z,42.51
2019-04-25T08:23:17.469Z,42.49
2019-04-25T08:28:34.493Z,42.28
2019-04-25T08:33:46.520Z,42.27
2019-04-25T08:39:00.604Z,42.40
2019-04-25T08:44:10.349Z,42.39
2019-04-25T08:49:34.881Z,42.37
2019-04-25T08:54:57.610Z,42.35
2019-04-25T09:00:17.207Z,42.36
2019-04-25T09:05:36.027Z,42.40
2019-04-25T09:10:43.405Z,42.39
2019-04-25T09:15:54.809Z,42.34
2019-04-25T09:21:13.709Z,42.28
2019-04-25T09:26:24.103Z,42.26
2019-04-25T09:31:40.194Z,42.30
2019-04-25T09:36:58.228Z,42.26
2019-04-25T09:42:06.574Z,42.20
2019-04-25T09:47:18.162Z,42.03
2019-04-25T09:52:29.723Z,41.92
2019-04-25T09:57:57.924Z,41.83
2019-04-25T10:03:06.383Z,41.75
2019-04-25T10:08:22.180Z,41.70
2019-04-25T10:13:35.072Z,41.68
2019-04-25T10:18:44.706Z,41.64
2019-04-25T10:23:57.444Z,41.61
2019-04-25T10:29:14.534Z,41.51
2019-04-25T10:34:20.071Z,41.37
2019-04-25T10:39:35.084Z,41.23
2019-04-25T10:44:53.998Z,41.04
2019-04-25T10:50:04.498Z,40.94
2019-04-25T10:55:14.256Z,40.86
2019-04-25T11:00:35.387Z,40.78
2019-04-25T11:05:41.500Z,40.69
2019-04-25T11:17:02.447Z,40.10
2019-04-25T11:22:45.074Z,39.69
2019-04-25T11:28:18.803Z,39.08
2019-04-25T11:33:49.974Z,38.80
2019-04-25T11:39:32.033Z,38.39
2019-04-25T11:44:41.130Z,37.98
2019-04-25T11:49:54.635Z,37.76
2019-04-25T11:55:06.997Z,37.60
2019-04-25T12:00:27.030Z,37.18
2019-04-25T12:05:56.232Z,37.00
2019-04-25T12:11:29.011Z,36.89
2019-04-25T12:16:51.541Z,36.73
2019-04-25T12:22:06.782Z,36.68
2019-04-25T12:27:16.323Z,36.59
2019-04-25T12:32:27.331Z,36.53
2019-04-25T12:37:49.881Z,36.52
2019-04-25T12:43:17.603Z,36.42
2019-04-25T12:48:36.084Z,36.44
2019-04-25T12:53:51.757Z,36.44
2019-04-25T12:59:04.652Z,36.43
2019-04-25T13:04:34.825Z,36.43
2019-04-25T13:09:44.649Z,36.41
2019-04-25T13:15:08.898Z,36.44
2019-04-25T13:20:30.735Z,36.43
2019-04-25T13:25:54.073Z,36.45
2019-04-25T13:31:48.741Z,36.44
2019-04-25T13:37:06.434Z,36.53
2019-04-25T13:42:30.283Z,36.56
2019-04-25T13:47:56.202Z,36.64
2019-04-25T13:53:25.628Z,36.72
2019-04-25T13:58:51.096Z,36.68
2019-04-25T14:04:32.077Z,36.43
2019-04-25T14:10:05.291Z,36.55
2019-04-25T14:15:32.869Z,36.64
2019-04-25T14:20:49.795Z,36.80
2019-04-25T14:26:10.685Z,36.78
2019-04-25T14:31:41.558Z,36.78
2019-04-25T14:36:40.176Z,37.05
2019-04-25T14:41:58.308Z,37.09
2019-04-25T14:47:20.401Z,36.92
2019-04-25T14:52:44.901Z,36.98
2019-04-25T14:57:57.264Z,36.98
2019-04-25T15:03:17.084Z,37.04
2019-04-25T15:08:40.332Z,37.16
2019-04-25T15:14:00.652Z,37.28
2019-04-25T15:19:37.821Z,37.35
2019-04-25T15:25:10.506Z,37.50
2019-04-25T15:30:40.829Z,37.67
2019-04-25T15:42:00.377Z,38.02
2019-04-25T15:47:24.071Z,38.32
2019-04-25T15:52:56.455Z,38.57
2019-04-25T15:58:12.451Z,38.91
2019-04-25T16:03:30.928Z,39.00
2019-04-25T16:08:50.621Z,39.28
2019-04-25T16:14:06.591Z,39.20
2019-04-25T16:19:29.698Z,39.37
2019-04-25T16:24:42.425Z,39.64
2019-04-25T16:30:15.436Z,39.66
2019-04-25T16:35:27.420Z,39.60
2019-04-25T16:40:52.366Z,39.75
2019-04-25T16:46:30.183Z,39.80
2019-04-25T16:51:42.421Z,39.82
2019-04-25T16:56:52.470Z,39.75
2019-04-25T17:02:16.581Z,39.71
2019-04-25T17:07:43.546Z,39.67
2019-04-25T17:12:50.350Z,39.75
2019-04-25T17:18:17.477Z,39.89
2019-04-25T17:23:32.345Z,39.96
2019-04-25T17:29:00.309Z,39.94
2019-04-25T17:34:36.588Z,40.19
2019-04-25T17:39:55.310Z,40.27
2019-04-25T17:45:14.874Z,40.45
2019-04-25T17:50:31.913Z,40.74
2019-04-25T17:56:01.948Z,41.03
2019-04-25T18:01:21.631Z,41.32
2019-04-25T18:06:40.015Z,41.54
2019-04-25T18:11:49.177Z,41.72
2019-04-25T18:17:17.880Z,41.87
2019-04-25T18:22:49.134Z,42.01
2019-04-25T18:28:16.748Z,42.09
2019-04-25T18:33:33.454Z,42.10
2019-04-25T18:39:05.271Z,42.13
2019-04-25T18:44:33.320Z,42.29
2019-04-25T18:49:56.628Z,42.36
2019-04-25T18:55:19.648Z,42.48
2019-04-25T19:00:45.908Z,42.60
2019-04-25T19:06:16.806Z,42.58
2019-04-25T19:11:28.054Z,42.68
2019-04-25T19:17:08.967Z,42.72
2019-04-25T19:22:29.645Z,42.83
2019-04-25T19:27:55.635Z,42.83
2019-04-25T19:33:20.447Z,42.94
2019-04-25T19:38:41.965Z,43.09
2019-04-25T19:44:07.754Z,43.16
2019-04-25T19:49:38.255Z,43.17
2019-04-25T19:55:16.260Z,43.33
2019-04-25T20:00:36.975Z,43.39
2019-04-25T20:06:01.678Z,43.49
2019-04-25T20:11:51.461Z,43.55
2019-04-25T20:17:04.728Z,43.62
2019-04-25T20:22:11.327Z,43.60
2019-04-25T20:27:35.086Z,43.59
2019-04-25T20:32:47.229Z,43.56
2019-04-25T20:38:22.803Z,43.61
2019-04-25T20:43:41.254Z,43.63
2019-04-25T20:48:56.411Z,43.65
2019-04-25T20:54:13.160Z,43.67
2019-04-25T20:59:30.589Z,43.70
2019-04-25T21:04:48.944Z,43.71
2019-04-25T21:10:00.933Z,43.73
2019-04-25T21:15:40.064Z,43.84
2019-04-25T21:20:55.010Z,43.88
2019-04-25T21:26:15.447Z,43.88
2019-04-25T21:31:24.488Z,43.89
2019-04-25T21:36:38.264Z,43.91
2019-04-25T21:42:01.879Z,43.97
2019-04-25T21:47:16.536Z,44.00
2019-04-25T21:52:34.065Z,44.00
2019-04-25T21:57:45.437Z,44.07
2019-04-25T22:03:02.623Z,44.11
2019-04-25T22:08:52.990Z,44.15
2019-04-25T22:14:11.750Z,44.13
2019-04-25T22:19:31.086Z,44.22
2019-04-25T22:24:42.569Z,44.24
2019-04-25T22:30:26.151Z,44.28
2019-04-25T22:41:46.535Z,44.33
2019-04-25T22:46:57.674Z,44.39
2019-04-25T22:52:16.576Z,44.45
2019-04-25T22:57:30.436Z,44.51
2019-04-25T23:02:47.774Z,44.58
2019-04-25T23:07:56.195Z,44.66
2019-04-25T23:13:08.875Z,44.71
2019-04-25T23:18:20.307Z,44.85
2019-04-25T23:23:40.931Z,44.91
2019-04-25T23:29:10.227Z,45.03
2019-04-25T23:34:22.344Z,44.99
2019-04-25T23:39:29.883Z,45.06
2019-04-25T23:44:38.237Z,45.06
2019-04-25T23:49:51.085Z,45.09
2019-04-25T23:55:17.803Z,45.08
